Time;durP1;ratioP1;P1;durP2;ratioP2;P2;SDS_P1;SDS_P2;PMS_P1;PMS_P2;Temp;Humidity;BMP_temperature;BMP_pressure;BME280_temperature;BME280_humidity;BME280_pressure;Samples;Min_cycle;Max_cycle;Signal;HPM_P1;HPM_P2
2024/03/06 00:02:19;;;;;;;118.68;111.68;;;7.60;99.90;;;;;;5044426;28;20049;-79
2024/03/06 00:04:45;;;;;;;114.72;107.90;;;7.70;99.90;;;;;;5048421;28;20065;-81
2024/03/06 00:07:11;;;;;;;128.95;121.45;;;7.70;99.90;;;;;;5036230;28;20034;-81
2024/03/06 00:09:37;;;;;;;147.68;139.18;;;7.70;99.90;;;;;;5044266;28;20029;-80
2024/03/06 00:12:04;;;;;;;130.05;122.57;;;7.60;99.90;;;;;;5034867;28;20395;-80
2024/03/06 00:14:30;;;;;;;135.17;127.60;;;7.60;99.90;;;;;;5034166;28;20526;-80
2024/03/06 00:16:56;;;;;;;129.57;122.28;;;7.60;99.90;;;;;;5044154;28;20037;-80
2024/03/06 00:19:23;;;;;;;124.25;116.88;;;7.60;99.90;;;;;;5032684;28;20029;-80
2024/03/06 00:21:49;;;;;;;153.32;144.43;;;7.50;99.90;;;;;;5038100;28;20424;-80
2024/03/06 00:24:15;;;;;;;166.10;156.82;;;7.40;99.90;;;;;;5031678;28;20033;-80
2024/03/06 00:26:44;;;;;;;163.95;154.57;;;7.40;99.90;;;;;;5037125;28;20037;-81
2024/03/06 00:29:10;;;;;;;144.98;136.25;;;7.30;99.90;;;;;;5035869;28;20037;-80
2024/03/06 00:31:37;;;;;;;171.82;161.65;;;7.30;99.90;;;;;;5030971;28;20048;-80
2024/03/06 00:34:04;;;;;;;168.13;158.00;;;7.40;99.90;;;;;;5046444;28;20029;-80
2024/03/06 00:36:30;;;;;;;180.60;169.53;;;7.40;99.90;;;;;;5040262;28;20042;-80
2024/03/06 00:38:56;;;;;;;173.43;163.20;;;7.40;99.90;;;;;;5045920;28;20030;-80
2024/03/06 00:41:23;;;;;;;204.40;192.55;;;7.40;99.90;;;;;;5043976;28;20037;-81
2024/03/06 00:43:49;;;;;;;168.50;158.47;;;7.40;99.90;;;;;;5046926;28;20503;-80
2024/03/06 00:46:15;;;;;;;156.35;146.95;;;7.40;99.90;;;;;;5033702;28;20029;-81
2024/03/06 00:48:42;;;;;;;116.67;110.00;;;7.40;99.90;;;;;;5037781;28;20495;-80
2024/03/06 00:51:08;;;;;;;104.47;98.20;;;7.40;99.90;;;;;;5041163;28;20029;-80
2024/03/06 00:53:37;;;;;;;141.43;132.80;;;7.30;99.90;;;;;;5042083;28;20497;-80
2024/03/06 00:56:03;;;;;;;144.70;136.13;;;7.30;99.90;;;;;;5042335;28;20044;-81
2024/03/06 00:58:29;;;;;;;140.53;132.33;;;7.20;99.90;;;;;;5048798;28;20037;-80
2024/03/06 01:00:55;;;;;;;150.23;141.00;;;7.20;99.90;;;;;;5040470;28;20407;-81
2024/03/06 01:03:21;;;;;;;79.60;75.13;;;7.10;99.90;;;;;;5055191;28;20060;-81
2024/03/06 01:05:48;;;;;;;84.37;79.30;;;7.20;99.90;;;;;;5049571;28;20036;-81
2024/03/06 01:08:15;;;;;;;98.40;92.23;;;7.20;99.90;;;;;;5041978;28;20029;-81
2024/03/06 01:10:41;;;;;;;119.50;112.43;;;7.10;99.90;;;;;;5045968;28;20041;-81
2024/03/06 01:13:10;;;;;;;105.40;98.63;;;7.10;99.90;;;;;;5044862;28;20036;-81
2024/03/06 01:15:37;;;;;;;86.27;80.87;;;7.10;99.90;;;;;;5048388;28;20427;-81
2024/03/06 01:18:04;;;;;;;97.57;91.63;;;7.10;99.90;;;;;;5038011;28;21473;-81
2024/03/06 01:20:30;;;;;;;138.75;131.27;;;7.10;99.90;;;;;;5048159;28;20049;-81
2024/03/06 01:22:56;;;;;;;113.37;106.83;;;7.00;99.90;;;;;;5037746;28;20045;-80
2024/03/06 01:25:22;;;;;;;63.73;59.73;;;7.00;99.90;;;;;;5041729;28;20048;-81
2024/03/06 01:27:48;;;;;;;77.73;72.83;;;7.00;99.90;;;;;;5038041;28;20025;-81
2024/03/06 01:30:15;;;;;;;147.82;139.50;;;7.00;99.90;;;;;;5042445;28;20033;-83
2024/03/06 01:32:41;;;;;;;134.83;126.90;;;7.00;99.90;;;;;;5041495;28;20053;-83
2024/03/06 01:35:07;;;;;;;142.63;134.50;;;7.00;99.90;;;;;;5040719;28;20037;-84
2024/03/06 01:37:33;;;;;;;141.37;132.90;;;7.00;99.90;;;;;;5034293;28;20034;-83
2024/03/06 01:39:59;;;;;;;149.60;140.90;;;7.00;99.90;;;;;;5045624;28;20043;-84
2024/03/06 01:42:25;;;;;;;101.23;94.83;;;7.00;99.90;;;;;;5041394;28;20048;-84
2024/03/06 01:44:51;;;;;;;111.68;104.80;;;7.00;99.90;;;;;;5046765;28;20029;-84
2024/03/06 01:47:18;;;;;;;94.27;88.73;;;7.00;99.90;;;;;;5049964;28;20047;-84
2024/03/06 01:49:45;;;;;;;136.80;128.63;;;6.90;99.90;;;;;;5039611;28;20056;-84
2024/03/06 01:52:13;;;;;;;98.10;92.33;;;7.00;99.90;;;;;;5036816;28;20045;-84
2024/03/06 01:54:39;;;;;;;118.43;111.33;;;6.90;99.90;;;;;;5049576;28;20039;-84
2024/03/06 01:57:06;;;;;;;114.83;107.47;;;6.90;99.90;;;;;;5042045;28;20056;-83
2024/03/06 01:59:32;;;;;;;194.17;182.90;;;6.90;99.90;;;;;;5036164;28;20030;-84
2024/03/06 02:01:58;;;;;;;130.80;123.33;;;6.90;99.90;;;;;;5038267;28;20060;-84
2024/03/06 02:04:26;;;;;;;108.77;102.30;;;6.90;99.90;;;;;;5045647;28;20036;-84
2024/03/06 02:06:52;;;;;;;147.70;139.20;;;6.80;99.90;;;;;;5049833;28;20033;-82
2024/03/06 02:09:19;;;;;;;153.07;144.50;;;6.70;99.90;;;;;;5037923;28;20041;-82
2024/03/06 02:11:45;;;;;;;143.03;134.60;;;6.70;99.90;;;;;;5035946;28;20060;-82
2024/03/06 02:14:12;;;;;;;144.43;135.93;;;6.70;99.90;;;;;;5048889;28;20047;-82
2024/03/06 02:16:41;;;;;;;87.90;82.80;;;6.70;99.90;;;;;;5042106;28;20042;-82
2024/03/06 02:19:08;;;;;;;82.50;77.33;;;6.70;99.90;;;;;;5042220;28;20036;-82
2024/03/06 02:21:34;;;;;;;90.90;85.37;;;6.70;99.90;;;;;;5038434;28;20041;-82
2024/03/06 02:24:00;;;;;;;100.67;94.73;;;6.60;99.90;;;;;;5042393;28;20039;-81
2024/03/06 02:26:26;;;;;;;93.10;87.03;;;6.60;99.90;;;;;;5049625;28;20038;-82
2024/03/06 02:28:53;;;;;;;94.40;88.60;;;6.60;99.90;;;;;;5041172;28;20043;-82
2024/03/06 02:31:20;;;;;;;107.07;100.67;;;6.60;99.90;;;;;;5037130;28;20037;-82
2024/03/06 02:33:47;;;;;;;73.23;68.43;;;6.50;99.90;;;;;;5047201;28;20026;-82
2024/03/06 02:36:16;;;;;;;81.50;75.00;;;6.60;99.90;;;;;;5042209;28;20056;-83
2024/03/06 02:38:43;;;;;;;80.13;74.97;;;6.50;99.90;;;;;;5046860;28;20029;-82
2024/03/06 02:41:10;;;;;;;76.23;71.03;;;6.40;99.90;;;;;;5042944;28;20483;-82
2024/03/06 02:43:36;;;;;;;71.53;66.73;;;6.40;99.90;;;;;;5049829;28;20097;-83
2024/03/06 02:46:03;;;;;;;78.83;74.07;;;6.40;99.90;;;;;;5036044;28;20041;-82
2024/03/06 02:48:29;;;;;;;74.03;69.03;;;6.40;99.90;;;;;;5042457;28;20387;-82
2024/03/06 02:50:56;;;;;;;75.17;70.13;;;6.40;99.90;;;;;;5042727;28;20040;-81
2024/03/06 02:53:22;;;;;;;83.10;77.20;;;6.40;99.90;;;;;;5026282;28;20044;-82
2024/03/06 02:55:48;;;;;;;73.23;68.07;;;6.30;99.90;;;;;;5047599;28;20028;-82
2024/03/06 02:58:16;;;;;;;120.63;113.73;;;6.30;99.90;;;;;;5047098;28;20036;-82
2024/03/06 03:00:43;;;;;;;81.27;76.23;;;6.30;99.90;;;;;;5045543;28;20525;-82
2024/03/06 03:03:11;;;;;;;101.03;94.83;;;6.20;99.90;;;;;;5043514;28;20068;-82
2024/03/06 03:05:39;;;;;;;112.03;105.53;;;6.20;99.90;;;;;;5039828;28;20025;-82
2024/03/06 03:08:05;;;;;;;59.83;56.07;;;6.20;99.90;;;;;;5038346;28;20025;-85
2024/03/06 03:10:31;;;;;;;59.40;55.10;;;6.20;99.90;;;;;;5035920;28;20392;-82
2024/03/06 03:12:57;;;;;;;65.20;61.00;;;6.20;99.90;;;;;;5037459;28;20029;-82
2024/03/06 03:15:23;;;;;;;72.37;67.67;;;6.20;99.90;;;;;;5038349;28;20392;-82
2024/03/06 03:17:50;;;;;;;70.53;65.83;;;6.10;99.90;;;;;;5037434;28;20033;-82
2024/03/06 03:20:16;;;;;;;70.93;66.17;;;6.10;99.90;;;;;;5048548;28;20033;-83
2024/03/06 03:22:43;;;;;;;76.17;71.17;;;6.10;99.90;;;;;;5037006;28;20048;-83
2024/03/06 03:25:10;;;;;;;80.83;75.90;;;6.10;99.90;;;;;;5036873;28;20032;-83
2024/03/06 03:27:43;;;;;;;73.00;68.03;;;6.10;99.90;;;;;;5049251;28;20033;-82
2024/03/06 03:30:10;;;;;;;69.60;64.93;;;6.00;99.90;;;;;;5044081;28;20047;-82
2024/03/06 03:32:36;;;;;;;68.67;63.87;;;6.00;99.90;;;;;;5041115;28;20480;-82
2024/03/06 03:35:06;;;;;;;68.53;63.67;;;6.00;99.90;;;;;;5037131;28;20048;-82
2024/03/06 03:37:32;;;;;;;79.80;74.37;;;6.00;99.90;;;;;;5041270;28;20034;-82
2024/03/06 03:39:58;;;;;;;74.17;69.50;;;6.00;99.90;;;;;;5039864;28;20065;-83
2024/03/06 03:42:24;;;;;;;65.83;61.33;;;6.00;99.90;;;;;;5047514;28;20044;-82
2024/03/06 03:44:50;;;;;;;72.87;67.93;;;6.00;99.90;;;;;;5043571;28;20037;-83
2024/03/06 03:47:17;;;;;;;75.10;69.83;;;5.90;99.90;;;;;;5042638;28;20056;-83
2024/03/06 03:49:43;;;;;;;75.50;70.97;;;5.90;99.90;;;;;;5030629;28;20456;-81
2024/03/06 03:52:09;;;;;;;61.53;57.73;;;5.80;99.90;;;;;;5046766;28;20037;-82
2024/03/06 03:54:35;;;;;;;61.03;56.37;;;5.80;99.90;;;;;;5048901;28;20387;-82
2024/03/06 03:57:01;;;;;;;69.50;64.90;;;5.70;99.90;;;;;;5036211;28;20033;-82
2024/03/06 03:59:27;;;;;;;74.30;69.67;;;5.80;99.90;;;;;;5041747;28;20491;-82
2024/03/06 04:01:53;;;;;;;67.50;63.40;;;5.70;99.90;;;;;;5038094;28;20037;-82
2024/03/06 04:04:21;;;;;;;59.00;54.93;;;5.60;99.90;;;;;;5044209;28;20045;-82
2024/03/06 04:06:47;;;;;;;58.03;54.17;;;5.70;99.90;;;;;;5044439;28;20044;-83
2024/03/06 04:09:14;;;;;;;55.37;51.53;;;5.70;99.90;;;;;;5039252;28;20349;-84
2024/03/06 04:11:40;;;;;;;64.70;60.07;;;5.70;99.90;;;;;;5051346;28;20028;-83
2024/03/06 04:14:06;;;;;;;100.83;94.07;;;5.70;99.90;;;;;;5045270;28;20026;-83
2024/03/06 04:16:33;;;;;;;70.43;65.73;;;5.70;99.90;;;;;;5033187;28;20041;-83
2024/03/06 04:19:00;;;;;;;77.07;72.27;;;5.70;99.90;;;;;;5044837;28;20045;-82
2024/03/06 04:21:26;;;;;;;102.63;96.17;;;5.50;99.90;;;;;;5046412;28;20029;-82
2024/03/06 04:23:53;;;;;;;82.10;76.47;;;5.60;99.90;;;;;;5050020;28;20041;-83
2024/03/06 04:26:19;;;;;;;69.53;64.83;;;5.60;99.90;;;;;;5051404;28;20037;-83
2024/03/06 04:28:45;;;;;;;67.17;62.50;;;5.60;99.90;;;;;;5044067;28;20030;-83
2024/03/06 04:31:11;;;;;;;82.77;77.47;;;5.60;99.90;;;;;;5045145;28;20040;-83
2024/03/06 04:33:37;;;;;;;77.60;72.47;;;5.60;99.90;;;;;;5049140;28;20036;-83
2024/03/06 04:36:05;;;;;;;80.23;75.03;;;5.50;99.90;;;;;;5053611;28;20029;-83
2024/03/06 04:38:31;;;;;;;60.50;56.23;;;5.50;99.90;;;;;;5052027;28;20033;-83
2024/03/06 04:40:57;;;;;;;57.13;52.90;;;5.50;99.90;;;;;;5044583;28;20506;-84
2024/03/06 04:43:24;;;;;;;54.17;50.30;;;5.50;99.90;;;;;;5038010;28;20049;-84
2024/03/06 04:45:50;;;;;;;53.57;49.47;;;5.50;99.90;;;;;;5045917;28;20037;-83
2024/03/06 04:48:16;;;;;;;69.20;64.83;;;5.50;99.90;;;;;;5039936;28;20029;-84
2024/03/06 04:50:42;;;;;;;71.07;66.03;;;5.40;99.90;;;;;;5037320;28;20071;-83
2024/03/06 04:53:08;;;;;;;69.63;65.23;;;5.40;99.90;;;;;;5037155;28;20033;-83
2024/03/06 04:55:36;;;;;;;63.83;59.50;;;5.40;99.90;;;;;;5049749;28;20025;-83
2024/03/06 04:58:03;;;;;;;57.37;53.63;;;5.40;99.90;;;;;;5043635;28;20041;-83
2024/03/06 05:00:30;;;;;;;55.33;51.50;;;5.30;99.90;;;;;;5039954;28;20059;-83
2024/03/06 05:02:56;;;;;;;69.97;65.53;;;5.40;99.90;;;;;;5046197;28;20033;-83
2024/03/06 05:05:25;;;;;;;86.37;80.87;;;5.30;99.90;;;;;;5035230;28;20044;-84
2024/03/06 05:07:51;;;;;;;62.37;58.23;;;5.20;99.90;;;;;;5042634;28;20055;-83
2024/03/06 05:10:18;;;;;;;53.83;50.07;;;5.20;99.90;;;;;;5040213;28;20029;-83
2024/03/06 05:12:44;;;;;;;66.13;61.60;;;5.20;99.90;;;;;;5046697;28;20368;-83
2024/03/06 05:15:10;;;;;;;68.03;63.43;;;5.10;99.90;;;;;;5046520;28;20041;-84
2024/03/06 05:17:36;;;;;;;64.17;59.43;;;4.90;99.90;;;;;;5046820;28;20372;-84
2024/03/06 05:20:03;;;;;;;62.77;58.27;;;4.70;99.90;;;;;;5047571;28;20025;-83
2024/03/06 05:22:30;;;;;;;56.73;52.07;;;4.40;99.90;;;;;;5050208;28;20064;-83
2024/03/06 05:24:56;;;;;;;57.07;52.30;;;4.10;99.90;;;;;;5049328;28;20372;-83
2024/03/06 05:27:22;;;;;;;77.80;72.30;;;4.00;99.90;;;;;;5052663;28;20029;-84
2024/03/06 05:29:48;;;;;;;87.50;81.67;;;4.20;99.90;;;;;;5051856;28;20025;-83
2024/03/06 05:32:14;;;;;;;86.37;79.93;;;4.40;99.90;;;;;;5032120;28;20042;-84
2024/03/06 05:34:40;;;;;;;100.13;93.10;;;4.50;99.90;;;;;;5043822;28;21491;-84
2024/03/06 05:37:06;;;;;;;118.00;110.07;;;4.70;99.90;;;;;;5042415;28;20025;-84
2024/03/06 05:39:33;;;;;;;55.73;51.53;;;4.70;99.90;;;;;;5042310;28;20040;-84
2024/03/06 05:42:02;;;;;;;67.33;62.27;;;4.80;99.90;;;;;;5035058;28;20053;-84
2024/03/06 05:44:29;;;;;;;64.77;60.27;;;4.80;99.90;;;;;;5041716;28;20041;-84
2024/03/06 05:46:56;;;;;;;51.60;47.27;;;4.90;99.90;;;;;;5048351;28;20044;-83
2024/03/06 05:49:23;;;;;;;1962.43;211.10;;;4.90;99.90;;;;;;5035222;28;20391;-83
2024/03/06 05:51:49;;;;;;;60.43;55.67;;;4.90;99.90;;;;;;5041577;28;20441;-83
2024/03/06 05:54:15;;;;;;;138.40;129.63;;;4.90;99.90;;;;;;5045064;28;20038;-84
2024/03/06 05:56:42;;;;;;;115.57;107.77;;;4.90;99.90;;;;;;5043018;28;20025;-77
2024/03/06 05:59:08;;;;;;;80.33;74.40;;;4.90;99.90;;;;;;5053851;28;20049;-85
2024/03/06 06:01:34;;;;;;;60.10;55.50;;;4.90;99.90;;;;;;5050616;28;20041;-86
2024/03/06 06:04:01;;;;;;;105.63;98.97;;;4.80;99.90;;;;;;5045683;28;20044;-85
2024/03/06 06:06:27;;;;;;;119.63;111.23;;;4.80;99.90;;;;;;5047313;28;20032;-86
2024/03/06 06:08:53;;;;;;;122.00;113.50;;;4.80;99.90;;;;;;5038828;28;20491;-85
2024/03/06 06:11:19;;;;;;;70.17;63.53;;;4.90;99.90;;;;;;5042107;28;20483;-84
2024/03/06 06:13:45;;;;;;;126.10;116.20;;;4.80;99.90;;;;;;5053483;28;20044;-84
2024/03/06 06:16:12;;;;;;;119.67;110.83;;;4.80;99.90;;;;;;5053214;28;20037;-84
2024/03/06 06:18:41;;;;;;;85.23;78.63;;;4.90;99.90;;;;;;5053762;28;20037;-84
2024/03/06 06:21:08;;;;;;;72.13;67.07;;;4.80;99.90;;;;;;5052827;28;20400;-84
2024/03/06 06:23:34;;;;;;;71.10;65.70;;;4.70;99.90;;;;;;5050247;28;20036;-84
2024/03/06 06:26:01;;;;;;;159.53;149.57;;;4.70;99.90;;;;;;5053264;28;20025;-84
2024/03/06 06:28:27;;;;;;;123.33;114.70;;;4.70;99.90;;;;;;5033838;28;20045;-84
2024/03/06 06:30:53;;;;;;;100.23;93.40;;;4.70;99.90;;;;;;5033117;28;20025;-84
2024/03/06 06:33:20;;;;;;;108.00;100.80;;;4.70;99.90;;;;;;5032405;28;20040;-84
2024/03/06 06:35:47;;;;;;;100.43;93.60;;;4.70;99.90;;;;;;5034976;28;20384;-84
2024/03/06 06:38:13;;;;;;;84.93;78.57;;;4.80;99.90;;;;;;5051064;28;20028;-84
2024/03/06 06:40:40;;;;;;;100.30;93.23;;;4.70;99.90;;;;;;5052698;28;20025;-84
2024/03/06 06:43:06;;;;;;;105.57;98.03;;;4.60;99.90;;;;;;5052862;28;20071;-84
2024/03/06 06:45:32;;;;;;;81.13;75.23;;;4.70;99.90;;;;;;5052533;28;20039;-84
2024/03/06 06:47:58;;;;;;;86.07;79.60;;;4.70;99.90;;;;;;5052721;28;20454;-84
2024/03/06 06:50:27;;;;;;;80.00;74.20;;;4.60;99.90;;;;;;5052243;28;20036;-84
2024/03/06 06:52:53;;;;;;;83.50;77.47;;;4.50;99.90;;;;;;5052399;28;20048;-83
2024/03/06 06:55:22;;;;;;;89.30;82.90;;;4.30;99.90;;;;;;5052376;28;20372;-84
2024/03/06 06:57:49;;;;;;;96.70;89.57;;;4.40;99.90;;;;;;5051445;28;20060;-83
2024/03/06 07:00:18;;;;;;;106.97;99.53;;;4.50;99.90;;;;;;5050844;28;20040;-84
2024/03/06 07:02:44;;;;;;;94.27;88.13;;;4.50;99.90;;;;;;5050920;28;20049;-84
2024/03/06 07:05:11;;;;;;;67.47;62.27;;;4.50;99.90;;;;;;5050828;28;20037;-84
2024/03/06 07:07:37;;;;;;;96.57;90.13;;;4.70;99.90;;;;;;5042102;28;20040;-84
2024/03/06 07:10:04;;;;;;;139.30;130.67;;;4.70;99.90;;;;;;5039432;28;20502;-84
2024/03/06 07:12:30;;;;;;;134.73;126.80;;;4.70;99.90;;;;;;5032760;28;20041;-84
2024/03/06 07:14:57;;;;;;;98.97;92.70;;;4.70;99.90;;;;;;5031660;28;20029;-84
2024/03/06 07:17:23;;;;;;;107.23;100.17;;;4.60;99.90;;;;;;5032319;28;20041;-85
2024/03/06 07:19:50;;;;;;;125.20;116.80;;;4.50;99.90;;;;;;5032655;28;20041;-84
2024/03/06 07:22:16;;;;;;;123.57;115.23;;;4.70;99.90;;;;;;5045653;28;20045;-85
2024/03/06 07:24:42;;;;;;;115.83;108.00;;;4.80;99.90;;;;;;5051932;28;20533;-85
2024/03/06 07:27:11;;;;;;;124.80;116.60;;;4.90;99.90;;;;;;5037194;28;20034;-85
2024/03/06 07:29:37;;;;;;;119.87;111.80;;;4.80;99.90;;;;;;5032454;28;20052;-85
2024/03/06 07:32:05;;;;;;;156.20;146.87;;;4.90;99.90;;;;;;5047276;28;20048;-85
2024/03/06 07:34:31;;;;;;;113.53;106.10;;;5.00;99.90;;;;;;5052953;28;20120;-85
2024/03/06 07:37:01;;;;;;;120.20;112.53;;;5.00;99.90;;;;;;5046153;28;20049;-85
2024/03/06 07:39:27;;;;;;;173.50;162.87;;;5.00;99.90;;;;;;5031930;28;20413;-86
2024/03/06 07:41:54;;;;;;;129.03;120.83;;;5.20;99.90;;;;;;5045950;28;20033;-86
2024/03/06 07:44:20;;;;;;;99.47;92.73;;;5.50;99.90;;;;;;5041984;28;20053;-85
2024/03/06 07:46:46;;;;;;;80.82;75.53;;;5.70;99.90;;;;;;5044594;28;20395;-85
2024/03/06 07:49:12;;;;;;;67.13;62.75;;;6.10;99.90;;;;;;5051777;28;20483;-88
2024/03/06 07:51:40;;;;;;;89.85;84.15;;;6.40;99.90;;;;;;5036834;28;20033;-87
2024/03/06 07:54:06;;;;;;;75.97;70.75;;;5.90;99.90;;;;;;5031390;28;20034;-89
2024/03/06 07:56:32;;;;;;;85.63;80.40;;;5.80;99.90;;;;;;5036924;28;20033;-88
2024/03/06 07:58:59;;;;;;;67.65;63.15;;;6.00;99.90;;;;;;5040739;28;20077;-87
2024/03/06 08:01:28;;;;;;;77.45;72.72;;;6.10;99.90;;;;;;5042641;28;20033;-85
2024/03/06 08:03:55;;;;;;;63.17;59.05;;;6.20;99.90;;;;;;5051089;28;20049;-86
2024/03/06 08:06:21;;;;;;;71.30;66.80;;;6.00;99.90;;;;;;5051409;28;20483;-86
2024/03/06 08:08:47;;;;;;;68.97;64.82;;;5.90;99.90;;;;;;5043929;28;20048;-86
2024/03/06 08:11:14;;;;;;;101.20;95.47;;;6.00;99.90;;;;;;5041257;28;20025;-87
2024/03/06 08:13:40;;;;;;;68.50;64.22;;;6.10;99.90;;;;;;5037665;28;20056;-83
2024/03/06 08:16:06;;;;;;;86.05;80.90;;;6.10;99.90;;;;;;5034225;28;20643;-86
2024/03/06 08:18:33;;;;;;;69.03;64.90;;;6.10;99.90;;;;;;5043065;28;20041;-87
2024/03/06 08:20:59;;;;;;;98.80;92.93;;;6.30;99.90;;;;;;5043308;28;20029;-86
2024/03/06 08:23:25;;;;;;;61.42;57.67;;;6.60;99.90;;;;;;5031014;28;20395;-89
2024/03/06 08:25:52;;;;;;;82.93;77.97;;;6.80;99.90;;;;;;5036942;28;20033;-89
2024/03/06 08:28:18;;;;;;;123.47;116.47;;;7.10;99.90;;;;;;5052832;28;20049;-90
2024/03/06 08:30:44;;;;;;;91.30;85.90;;;7.60;99.90;;;;;;5050721;28;20042;-91
2024/03/06 08:33:11;;;;;;;70.63;66.53;;;8.20;99.90;;;;;;5053318;28;20494;-91
2024/03/06 08:35:37;;;;;;;80.35;75.45;;;8.80;99.90;;;;;;5044372;28;20041;-89
2024/03/06 08:38:03;;;;;;;107.82;101.43;;;9.20;99.90;;;;;;5037983;28;20040;-89
2024/03/06 08:40:30;;;;;;;112.05;105.72;;;9.50;99.90;;;;;;5031511;28;20033;-89
2024/03/06 08:42:56;;;;;;;76.07;71.60;;;9.30;99.90;;;;;;5031625;28;20511;-89
2024/03/06 08:45:25;;;;;;;132.70;124.82;;;9.10;99.90;;;;;;5035694;28;20049;-89
2024/03/06 08:47:53;;;;;;;77.80;73.28;;;9.50;99.90;;;;;;5042747;28;20472;-87
2024/03/06 08:50:19;;;;;;;97.35;91.60;;;9.60;99.90;;;;;;5038567;28;20025;-89
2024/03/06 08:52:46;;;;;;;101.22;95.38;;;9.50;99.90;;;;;;5046678;28;20044;-89
2024/03/06 08:55:12;;;;;;;102.07;96.30;;;9.50;99.90;;;;;;5036059;28;20037;-89
2024/03/06 08:57:38;;;;;;;99.93;94.10;;;9.50;99.90;;;;;;5034146;28;20525;-88
2024/03/06 09:00:11;;;;;;;134.40;126.63;;;9.40;99.90;;;;;;5029640;28;20021;-88
2024/03/06 09:02:40;;;;;;;149.07;140.43;;;9.20;99.90;;;;;;5037320;28;20044;-87
2024/03/06 09:05:08;;;;;;;123.95;116.38;;;9.10;99.90;;;;;;5031142;28;20062;-87
2024/03/06 09:07:37;;;;;;;60.13;56.25;;;8.90;99.90;;;;;;5030865;28;20045;-89
2024/03/06 09:10:05;;;;;;;98.00;92.03;;;9.00;99.90;;;;;;5037744;28;20050;-88
2024/03/06 09:12:31;;;;;;;83.38;78.50;;;9.10;99.90;;;;;;5051881;28;20032;-87
2024/03/06 09:15:00;;;;;;;94.18;88.60;;;9.10;99.90;;;;;;5055013;28;20091;-88
2024/03/06 09:17:26;;;;;;;143.35;135.18;;;9.20;99.90;;;;;;5053293;28;20033;-87
2024/03/06 09:19:53;;;;;;;124.80;117.63;;;9.60;99.90;;;;;;5034749;28;20385;-87
2024/03/06 09:22:19;;;;;;;122.97;115.88;;;9.60;99.90;;;;;;5051692;28;20048;-88
2024/03/06 09:24:45;;;;;;;86.80;81.55;;;9.60;99.90;;;;;;5054724;28;20033;-88
2024/03/06 09:27:13;;;;;;;130.05;122.28;;;10.10;99.90;;;;;;5037137;28;20483;-88
2024/03/06 09:29:40;;;;;;;99.53;93.47;;;10.70;99.90;;;;;;5040646;28;20040;-88
2024/03/06 09:32:06;;;;;;;1999.90;999.90;;;10.70;99.90;;;;;;5053629;28;20033;-87
2024/03/06 09:34:33;;;;;;;198.98;187.75;;;10.90;99.90;;;;;;5054396;28;20029;-75
2024/03/06 09:36:59;;;;;;;131.15;122.90;;;10.70;99.90;;;;;;5054395;28;20048;-76
2024/03/06 09:39:25;;;;;;;143.98;135.30;;;10.70;99.90;;;;;;5037150;28;20041;-90
2024/03/06 09:41:51;;;;;;;1999.90;999.90;;;10.80;99.90;;;;;;5049202;28;20467;-83
2024/03/06 09:44:18;;;;;;;603.25;347.38;;;11.00;99.90;;;;;;5047671;28;20037;-84
2024/03/06 09:46:47;;;;;;;1999.90;999.90;;;11.40;99.90;;;;;;5042805;28;20469;-84
2024/03/06 09:49:15;;;;;;;1999.90;999.90;;;11.80;99.90;;;;;;5049963;28;20044;-84
2024/03/06 09:51:45;;;;;;;1999.90;999.90;;;11.80;99.90;;;;;;5044905;28;20057;-84
2024/03/06 09:54:13;;;;;;;1999.90;999.90;;;11.60;99.90;;;;;;5052532;28;20044;-83
2024/03/06 09:56:39;;;;;;;1999.90;999.90;;;11.50;99.90;;;;;;5026482;28;20041;-83
2024/03/06 09:59:05;;;;;;;1999.90;999.90;;;11.40;99.90;;;;;;5051108;28;20025;-83
2024/03/06 10:01:31;;;;;;;270.80;254.30;;;11.20;99.90;;;;;;5041938;28;20056;-83
2024/03/06 10:03:57;;;;;;;1999.90;999.90;;;11.10;99.90;;;;;;5049992;28;20044;-83
2024/03/06 10:06:23;;;;;;;223.27;209.80;;;11.00;99.90;;;;;;5045805;28;20034;-83
2024/03/06 10:08:50;;;;;;;160.82;151.32;;;11.10;99.90;;;;;;5040251;28;20026;-83
2024/03/06 10:11:17;;;;;;;127.13;119.80;;;10.90;99.90;;;;;;5049544;28;20033;-84
2024/03/06 10:13:43;;;;;;;109.00;102.35;;;11.00;99.90;;;;;;5041461;28;20049;-83
2024/03/06 10:16:11;;;;;;;123.95;116.82;;;11.20;99.90;;;;;;5040222;28;20044;-84
2024/03/06 10:18:39;;;;;;;587.63;332.83;;;11.20;99.90;;;;;;5036563;28;20116;-84
2024/03/06 10:21:05;;;;;;;112.03;105.45;;;11.20;99.90;;;;;;5046493;28;20036;-83
2024/03/06 10:23:32;;;;;;;619.30;362.77;;;11.50;99.90;;;;;;5036117;28;20045;-83
2024/03/06 10:25:58;;;;;;;1999.90;999.90;;;11.50;99.90;;;;;;5042917;28;20032;-83
2024/03/06 10:28:24;;;;;;;1999.90;999.90;;;11.70;99.90;;;;;;5033494;28;20026;-83
2024/03/06 10:30:51;;;;;;;1999.90;999.90;;;11.80;99.90;;;;;;5037517;28;20052;-84
2024/03/06 10:33:18;;;;;;;1999.90;999.90;;;11.80;99.90;;;;;;5050993;28;20041;-84
2024/03/06 10:35:46;;;;;;;285.08;268.30;;;11.80;99.90;;;;;;5036881;28;20459;-83
2024/03/06 10:38:12;;;;;;;1999.90;999.90;;;11.90;99.90;;;;;;5044354;28;20044;-83
2024/03/06 10:40:39;;;;;;;733.38;469.23;;;11.90;99.90;;;;;;5036645;28;20045;-84
2024/03/06 10:43:06;;;;;;;236.25;222.45;;;12.00;99.90;;;;;;5044843;28;20045;-83
2024/03/06 10:45:48;;;;;;;1999.90;999.90;;;12.10;99.90;;;;;;5050551;28;20048;-83
2024/03/06 10:48:14;;;;;;;1999.90;999.90;;;12.20;99.90;;;;;;5050602;28;20040;-83
2024/03/06 10:50:43;;;;;;;1999.90;999.90;;;12.40;99.90;;;;;;5037700;28;20075;-83
2024/03/06 10:53:10;;;;;;;1999.90;999.90;;;12.50;99.90;;;;;;5050566;28;20033;-83
2024/03/06 10:55:36;;;;;;;1999.90;999.90;;;12.80;99.90;;;;;;5051251;28;20029;-82
2024/03/06 10:58:10;;;;;;;1999.90;999.90;;;13.00;99.90;;;;;;5036962;28;20029;-83
2024/03/06 11:00:57;;;;;;;1999.90;999.90;;;12.90;99.90;;;;;;5018046;28;20033;-83
2024/03/06 11:03:24;;;;;;;1999.90;999.90;;;13.00;99.90;;;;;;5041450;28;20089;-83
2024/03/06 11:05:51;;;;;;;1999.90;999.90;;;13.10;99.90;;;;;;5037986;28;20045;-84
2024/03/06 11:08:17;;;;;;;1999.90;999.90;;;12.70;99.90;;;;;;5038541;28;20033;-84
2024/03/06 11:10:43;;;;;;;1999.90;999.90;;;12.70;99.90;;;;;;5035736;28;20039;-84
2024/03/06 11:13:25;;;;;;;1999.90;999.90;;;13.10;99.90;;;;;;5038647;28;20077;-83
2024/03/06 11:15:53;;;;;;;1999.90;999.90;;;13.20;99.90;;;;;;5037188;28;20044;-84
2024/03/06 11:18:46;;;;;;;1999.90;999.90;;;13.30;99.90;;;;;;5052104;28;20041;-83
2024/03/06 11:21:13;;;;;;;1999.90;999.90;;;13.40;99.90;;;;;;5049830;28;20044;-84
2024/03/06 11:24:10;;;;;;;1999.90;999.90;;;13.20;99.90;;;;;;5040668;28;20056;-83
2024/03/06 11:26:37;;;;;;;1999.90;999.90;;;12.90;99.90;;;;;;5040802;28;20062;-84
2024/03/06 11:29:03;;;;;;;1999.90;999.90;;;12.80;99.90;;;;;;5032120;28;20033;-83
2024/03/06 11:31:29;;;;;;;1999.90;999.90;;;12.70;99.90;;;;;;5041901;28;20040;-83
2024/03/06 11:33:55;;;;;;;1999.90;999.90;;;12.90;99.90;;;;;;5036571;28;20037;-84
2024/03/06 11:36:28;;;;;;;1999.90;999.90;;;13.00;99.90;;;;;;5041760;28;20040;-85
2024/03/06 11:38:59;;;;;;;1999.90;999.90;;;13.20;99.90;;;;;;5039607;28;20048;-82
2024/03/06 11:41:26;;;;;;;1999.90;999.90;;;13.20;99.90;;;;;;5039325;28;20048;-80
2024/03/06 11:43:53;;;;;;;1999.90;999.90;;;13.20;99.90;;;;;;5042724;28;20049;-81
2024/03/06 11:46:20;;;;;;;1999.90;999.90;;;13.40;99.90;;;;;;5043157;28;20045;-82
2024/03/06 11:48:55;;;;;;;1999.90;999.90;;;13.40;99.90;;;;;;5033047;28;20395;-81
2024/03/06 11:51:24;;;;;;;1999.90;999.90;;;13.00;99.90;;;;;;5023255;28;20391;-81
2024/03/06 11:53:51;;;;;;;1999.90;999.90;;;12.60;99.90;;;;;;5036351;28;20048;-82
2024/03/06 11:56:19;;;;;;;1999.90;999.90;;;12.50;99.90;;;;;;5040410;28;20479;-81
2024/03/06 11:58:45;;;;;;;1999.90;999.90;;;12.50;99.90;;;;;;5033185;28;20395;-81
2024/03/06 12:01:11;;;;;;;1999.90;999.90;;;12.60;99.90;;;;;;5048061;28;20474;-82
2024/03/06 12:03:37;;;;;;;1999.90;999.90;;;12.70;99.90;;;;;;5039895;28;20029;-81
2024/03/06 12:06:04;;;;;;;1999.90;999.90;;;12.90;99.90;;;;;;5042795;28;20531;-81
2024/03/06 12:08:30;;;;;;;1999.90;999.90;;;13.10;99.90;;;;;;5043076;28;20040;-82
2024/03/06 12:10:57;;;;;;;1999.90;999.90;;;13.20;99.90;;;;;;5044263;28;20383;-81
2024/03/06 12:13:24;;;;;;;1999.90;999.90;;;13.20;99.90;;;;;;5031545;28;20411;-81
2024/03/06 12:15:51;;;;;;;1999.90;999.90;;;13.10;99.90;;;;;;5030839;28;20037;-82
2024/03/06 12:18:18;;;;;;;1999.90;999.90;;;13.40;99.90;;;;;;5036050;28;20052;-82
2024/03/06 12:20:45;;;;;;;1999.90;999.90;;;13.50;99.90;;;;;;5045874;28;20041;-81
2024/03/06 12:23:22;;;;;;;1999.90;999.90;;;13.30;99.90;;;;;;5039479;28;20022;-81